Time;durP1;ratioP1;P1;durP2;ratioP2;P2;SDS_P1;SDS_P2;PMS_P1;PMS_P2;Temp;Humidity;BMP_temperature;BMP_pressure;BME280_temperature;BME280_humidity;BME280_pressure;Samples;Min_cycle;Max_cycle;Signal;HPM_P1;HPM_P2
2023/06/18 00:01:18;;;;;;;15.20;11.37;;;;;;;;;;5020230;28;20477;-72
2023/06/18 00:03:49;;;;;;;14.13;10.73;;;;;;;;;;5019821;28;20467;-72
2023/06/18 00:06:17;;;;;;;11.80;9.87;;;;;;;;;;5014891;28;20594;-71
2023/06/18 00:08:45;;;;;;;12.77;10.13;;;;;;;;;;5015435;28;20881;-72
2023/06/18 00:11:13;;;;;;;15.40;9.20;;;;;;;;;;5014407;28;20518;-72
2023/06/18 00:13:41;;;;;;;12.83;10.73;;;;;;;;;;5014589;28;20483;-72
2023/06/18 00:16:09;;;;;;;13.50;10.20;;;;;;;;;;5016495;28;20882;-73
2023/06/18 00:18:59;;;;;;;17.83;13.57;;;;;;;;;;5026061;28;20920;-73
2023/06/18 00:21:32;;;;;;;17.60;13.43;;;;;;;;;;5034266;28;20490;-73
2023/06/18 00:23:59;;;;;;;15.43;11.60;;;;;;;;;;5033724;28;20866;-72
2023/06/18 00:31:38;;;;;;;12.83;9.83;;;;;;;;;;5493401;23;20522;-81
2023/06/18 00:34:06;;;;;;;13.67;10.67;;;;;;;;;;5018821;28;20490;-81
2023/06/18 00:36:38;;;;;;;12.07;10.87;;;;;;;;;;5020017;28;20501;-81
2023/06/18 00:39:06;;;;;;;12.23;10.80;;;;;;;;;;5005231;28;20805;-80
2023/06/18 00:41:34;;;;;;;12.03;9.80;;;;;;;;;;5001204;28;20495;-80
2023/06/18 00:44:02;;;;;;;14.67;10.37;;;;;;;;;;5000242;28;20464;-82
2023/06/18 00:46:35;;;;;;;13.60;10.23;;;;;;;;;;5000982;28;20478;-82
2023/06/18 00:49:03;;;;;;;11.50;9.80;;;;;;;;;;5001763;28;20475;-81
2023/06/18 00:51:31;;;;;;;11.80;9.20;;;;;;;;;;5002576;28;20455;-82
2023/06/18 00:54:00;;;;;;;10.70;9.60;;;;;;;;;;5003152;28;20716;-81
2023/06/18 00:56:29;;;;;;;13.50;11.30;;;;;;;;;;5004325;28;20887;-81
2023/06/18 00:58:57;;;;;;;18.20;11.93;;;;;;;;;;5004902;28;20471;-81
2023/06/18 01:01:24;;;;;;;11.83;10.50;;;;;;;;;;5003942;28;20472;-81
2023/06/18 01:03:52;;;;;;;13.20;10.90;;;;;;;;;;5005672;28;20436;-81
2023/06/18 01:06:20;;;;;;;11.67;9.10;;;;;;;;;;5006587;28;20456;-81
2023/06/18 01:11:57;;;;;;;16.20;11.13;;;;;;;;;;5004277;28;20463;-82
2023/06/18 01:14:27;;;;;;;11.33;10.13;;;;;;;;;;5039077;28;20741;-81
2023/06/18 01:17:03;;;;;;;11.73;9.93;;;;;;;;;;5044793;28;20454;-81
2023/06/18 01:19:40;;;;;;;11.63;10.43;;;;;;;;;;5045050;28;20462;-82
2023/06/18 01:22:11;;;;;;;10.93;9.80;;;;;;;;;;5045077;28;20700;-81
2023/06/18 01:30:07;;;;;;;16.53;12.07;;;;;;;;;;5028941;28;20815;-72
2023/06/18 01:32:38;;;;;;;12.53;11.13;;;;;;;;;;5027362;28;20731;-73
2023/06/18 01:35:06;;;;;;;14.33;10.90;;;;;;;;;;5010661;28;20785;-71
2023/06/18 01:37:38;;;;;;;13.97;10.87;;;;;;;;;;5018019;28;20470;-71
2023/06/18 01:40:14;;;;;;;13.70;11.13;;;;;;;;;;5033992;28;20462;-74
2023/06/18 01:42:44;;;;;;;15.73;11.10;;;;;;;;;;5030607;28;20482;-73
2023/06/18 01:45:20;;;;;;;14.33;9.80;;;;;;;;;;5017102;28;20747;-72
2023/06/18 01:47:49;;;;;;;15.40;11.53;;;;;;;;;;5018245;28;20455;-73
2023/06/18 01:53:02;;;;;;;14.20;11.37;;;;;;;;;;4963429;28;20470;-72
2023/06/18 01:55:30;;;;;;;12.50;10.40;;;;;;;;;;5035525;28;20449;-72
2023/06/18 01:58:00;;;;;;;12.67;10.70;;;;;;;;;;5038298;28;20451;-72
2023/06/18 02:00:30;;;;;;;13.40;10.50;;;;;;;;;;5035619;28;20545;-73
2023/06/18 02:03:00;;;;;;;13.30;11.47;;;;;;;;;;5016589;28;20513;-73
2023/06/18 02:05:28;;;;;;;11.60;9.83;;;;;;;;;;5016281;28;20498;-72
2023/06/18 02:07:55;;;;;;;12.67;10.63;;;;;;;;;;5017773;28;20463;-73
2023/06/18 02:10:23;;;;;;;13.30;10.70;;;;;;;;;;5016955;28;20482;-74
2023/06/18 02:12:51;;;;;;;15.50;11.33;;;;;;;;;;5015490;28;20534;-73
2023/06/18 02:15:20;;;;;;;14.17;11.00;;;;;;;;;;5007863;28;20887;-72
2023/06/18 02:17:49;;;;;;;13.63;9.50;;;;;;;;;;4995778;28;20456;-73
2023/06/18 02:20:17;;;;;;;11.37;10.10;;;;;;;;;;4997790;28;20460;-72
2023/06/18 02:22:44;;;;;;;11.60;10.20;;;;;;;;;;4997538;28;20614;-73
2023/06/18 02:25:13;;;;;;;10.97;9.50;;;;;;;;;;4992296;28;20464;-73
2023/06/18 03:25:48;;;;;;;13.30;10.03;;;;;;;;;;4995852;22;20974;-73
2023/06/18 03:38:38;;;;;;;14.00;11.50;;;;;;;;;;5011793;28;20863;-73
2023/06/18 03:41:10;;;;;;;12.13;10.80;;;;;;;;;;5014112;28;20722;-73
2023/06/18 03:43:38;;;;;;;12.90;11.13;;;;;;;;;;5014146;28;20724;-73
2023/06/18 03:46:09;;;;;;;15.13;12.40;;;;;;;;;;5014937;28;20556;-73
2023/06/18 03:48:39;;;;;;;12.77;11.13;;;;;;;;;;5015688;28;20460;-73
2023/06/18 03:51:35;;;;;;;14.47;11.13;;;;;;;;;;5014459;28;20739;-72
2023/06/18 03:54:02;;;;;;;12.80;11.60;;;;;;;;;;5017253;28;21219;-73
2023/06/18 03:56:32;;;;;;;12.70;10.50;;;;;;;;;;5015999;28;20444;-73
2023/06/18 03:59:01;;;;;;;15.30;11.53;;;;;;;;;;5014865;28;20444;-73
2023/06/18 04:01:29;;;;;;;11.97;10.77;;;;;;;;;;5013835;28;20447;-73
2023/06/18 04:03:57;;;;;;;13.40;11.23;;;;;;;;;;5012296;28;20493;-73
2023/06/18 04:06:29;;;;;;;13.70;11.20;;;;;;;;;;5013090;28;20494;-72
2023/06/18 04:08:57;;;;;;;13.70;12.30;;;;;;;;;;4990620;28;20463;-72
2023/06/18 04:11:25;;;;;;;14.43;12.57;;;;;;;;;;4990852;28;20593;-73
2023/06/18 04:13:55;;;;;;;13.00;10.10;;;;;;;;;;4993489;28;20883;-73
2023/06/18 04:16:23;;;;;;;13.43;10.63;;;;;;;;;;4994037;28;20472;-73
2023/06/18 04:18:51;;;;;;;14.60;12.20;;;;;;;;;;4997026;28;20836;-72
2023/06/18 04:21:19;;;;;;;13.63;12.27;;;;;;;;;;4999476;28;20452;-72
2023/06/18 04:23:48;;;;;;;11.73;10.53;;;;;;;;;;4996205;28;20551;-72
2023/06/18 05:35:35;;;;;;;13.63;11.87;;;;;;;;;;4994440;28;20500;-74
2023/06/18 05:38:03;;;;;;;13.20;11.90;;;;;;;;;;4998774;28;20468;-75
2023/06/18 05:40:31;;;;;;;11.80;10.60;;;;;;;;;;4999904;28;20456;-74
2023/06/18 05:43:07;;;;;;;11.77;10.57;;;;;;;;;;4997746;28;20492;-74
2023/06/18 05:45:35;;;;;;;12.10;11.00;;;;;;;;;;4996929;28;20464;-74
2023/06/18 05:48:03;;;;;;;11.47;10.37;;;;;;;;;;4998563;28;20784;-75
2023/06/18 05:53:37;;;;;;;11.87;10.60;;;;;;;;;;4999173;28;20455;-75
2023/06/18 05:58:58;;;;;;;10.93;9.80;;;;;;;;;;4983094;28;20452;-75
2023/06/18 06:01:33;;;;;;;11.83;9.40;;;;;;;;;;4996055;28;20484;-75
2023/06/18 06:04:01;;;;;;;12.00;9.10;;;;;;;;;;4998751;28;20487;-75
2023/06/18 06:06:29;;;;;;;10.27;9.27;;;;;;;;;;4997850;28;20837;-74
2023/06/18 06:09:27;;;;;;;12.40;8.00;;;;;;;;;;4995548;28;20735;-75
2023/06/18 06:11:57;;;;;;;7.80;6.97;;;;;;;;;;4997319;28;20460;-74
2023/06/18 06:14:25;;;;;;;9.67;8.20;;;;;;;;;;4996820;28;20471;-74
2023/06/18 06:16:57;;;;;;;8.90;8.00;;;;;;;;;;4995268;28;20865;-76
2023/06/18 06:19:25;;;;;;;9.63;8.67;;;;;;;;;;4995229;28;20740;-74
2023/06/18 06:21:53;;;;;;;9.30;7.50;;;;;;;;;;4995270;28;20445;-75
2023/06/18 06:24:21;;;;;;;9.00;7.30;;;;;;;;;;4996506;28;20604;-74
2023/06/18 06:32:00;;;;;;;7.93;6.90;;;;;;;;;;5036433;28;20596;-81
2023/06/18 06:34:27;;;;;;;7.40;6.70;;;;;;;;;;5038798;28;20447;-83
2023/06/18 06:36:54;;;;;;;7.73;6.93;;;;;;;;;;5040265;28;20768;-81
2023/06/18 06:39:22;;;;;;;7.07;6.20;;;;;;;;;;5045163;28;20455;-80
2023/06/18 06:41:49;;;;;;;7.33;6.17;;;;;;;;;;5043431;28;20526;-84
2023/06/18 06:44:16;;;;;;;7.27;6.13;;;;;;;;;;5043377;28;20521;-82
2023/06/18 06:46:44;;;;;;;6.80;5.63;;;;;;;;;;5039233;28;20622;-83
2023/06/18 06:49:13;;;;;;;11.07;6.47;;;;;;;;;;5044257;28;20858;-82
2023/06/18 06:51:49;;;;;;;7.00;5.87;;;;;;;;;;5041340;28;20455;-80
2023/06/18 06:54:17;;;;;;;10.23;5.67;;;;;;;;;;5042291;28;20461;-82
2023/06/18 06:56:45;;;;;;;7.00;6.00;;;;;;;;;;5042053;28;20447;-82
2023/06/18 06:59:12;;;;;;;6.20;5.60;;;;;;;;;;5040552;28;21043;-83
2023/06/18 07:01:40;;;;;;;7.50;5.53;;;;;;;;;;5040711;28;20431;-82
2023/06/18 07:04:07;;;;;;;6.07;5.47;;;;;;;;;;5042029;28;20482;-84
2023/06/18 07:06:38;;;;;;;5.60;5.00;;;;;;;;;;5043706;28;20881;-81
2023/06/18 07:12:10;;;;;;;5.70;4.70;;;;;;;;;;5038803;28;20406;-82
2023/06/18 07:14:37;;;;;;;5.60;5.10;;;;;;;;;;5042400;28;20447;-80
2023/06/18 07:17:04;;;;;;;5.97;5.10;;;;;;;;;;5040489;28;20435;-80
2023/06/18 07:19:32;;;;;;;5.60;4.77;;;;;;;;;;5041206;28;20501;-82
2023/06/18 07:22:01;;;;;;;5.70;5.00;;;;;;;;;;5041951;28;20874;-81
2023/06/18 07:35:05;;;;;;;5.33;4.83;;;;;;;;;;3363745;26;20517;-84
2023/06/18 07:37:38;;;;;;;6.10;5.40;;;;;;;;;;5043592;28;20465;-83
2023/06/18 07:40:08;;;;;;;5.80;5.17;;;;;;;;;;5038586;28;20454;-84
2023/06/18 07:42:36;;;;;;;5.00;4.50;;;;;;;;;;5039459;28;20469;-81
2023/06/18 07:45:10;;;;;;;6.70;4.83;;;;;;;;;;5041986;28;20737;-80
2023/06/18 07:47:38;;;;;;;5.93;4.57;;;;;;;;;;5041387;28;20521;-82
2023/06/18 07:50:08;;;;;;;7.30;5.20;;;;;;;;;;5045873;28;20462;-80
2023/06/18 07:52:42;;;;;;;5.50;4.57;;;;;;;;;;5043581;28;20625;-83
2023/06/18 07:55:12;;;;;;;5.30;4.27;;;;;;;;;;5046830;28;20486;-83
2023/06/18 07:57:39;;;;;;;5.30;4.53;;;;;;;;;;5040480;28;20466;-80
2023/06/18 08:00:08;;;;;;;4.80;3.53;;;;;;;;;;5044224;28;20431;-80
2023/06/18 08:02:36;;;;;;;4.13;3.53;;;;;;;;;;5042004;28;20461;-79
2023/06/18 08:05:03;;;;;;;5.73;4.63;;;;;;;;;;5042844;28;20487;-82
2023/06/18 08:07:31;;;;;;;5.00;4.50;;;;;;;;;;5040481;28;20451;-83
2023/06/18 08:15:29;;;;;;;5.37;4.40;;;;;;;;;;5040747;28;20487;-81
2023/06/18 08:17:58;;;;;;;5.20;4.50;;;;;;;;;;5041926;28;20208;-82
2023/06/18 08:20:25;;;;;;;5.43;4.87;;;;;;;;;;5041350;28;20471;-81
2023/06/18 08:22:52;;;;;;;5.53;4.90;;;;;;;;;;5038665;28;20446;-81
2023/06/18 08:30:38;;;;;;;6.40;4.47;;;;;;;;;;4881953;22;20490;-74
2023/06/18 08:33:08;;;;;;;5.20;4.63;;;;;;;;;;4991338;28;20563;-74
2023/06/18 08:35:45;;;;;;;5.10;4.60;;;;;;;;;;4987865;28;20751;-75
2023/06/18 08:38:26;;;;;;;7.67;4.83;;;;;;;;;;4988892;28;20670;-74
2023/06/18 08:43:48;;;;;;;5.97;4.37;;;;;;;;;;4985078;28;20583;-74
2023/06/18 08:46:21;;;;;;;7.00;4.27;;;;;;;;;;4989087;28;20460;-75
2023/06/18 08:48:50;;;;;;;5.70;4.50;;;;;;;;;;4991180;28;20566;-76
2023/06/18 08:51:19;;;;;;;5.10;4.60;;;;;;;;;;4993675;28;20512;-74
2023/06/18 08:53:52;;;;;;;8.67;4.57;;;;;;;;;;4993833;28;20464;-75
2023/06/18 08:56:31;;;;;;;4.77;3.90;;;;;;;;;;4994156;28;20467;-74
2023/06/18 08:59:05;;;;;;;6.17;4.20;;;;;;;;;;4997522;28;20535;-75
2023/06/18 09:01:35;;;;;;;4.13;3.73;;;;;;;;;;4991399;28;20864;-74
2023/06/18 09:04:08;;;;;;;6.73;4.10;;;;;;;;;;4993880;28;20917;-75
2023/06/18 09:06:39;;;;;;;7.00;4.23;;;;;;;;;;4992843;28;20881;-74
2023/06/18 09:09:19;;;;;;;4.70;3.73;;;;;;;;;;4992124;28;20452;-75
2023/06/18 09:11:53;;;;;;;4.77;3.80;;;;;;;;;;4990848;28;20464;-74
2023/06/18 09:14:30;;;;;;;5.43;4.10;;;;;;;;;;4991571;28;20461;-76
2023/06/18 09:19:52;;;;;;;6.40;4.00;;;;;;;;;;4979701;28;21113;-76
2023/06/18 09:22:22;;;;;;;5.40;3.60;;;;;;;;;;4990529;28;20447;-74
2023/06/18 09:25:02;;;;;;;4.50;3.93;;;;;;;;;;4994906;28;20491;-74
2023/06/18 09:30:09;;;;;;;5.95;3.50;;;;;;;;;;5854025;23;20457;31
2023/06/18 09:32:57;;;;;;;5.37;4.03;;;;;;;;;;4973467;28;20473;-73
2023/06/18 09:35:26;;;;;;;4.67;3.83;;;;;;;;;;4972863;28;20445;-73
2023/06/18 09:37:58;;;;;;;4.83;4.00;;;;;;;;;;4968629;28;20604;-74
2023/06/18 09:40:33;;;;;;;4.07;3.30;;;;;;;;;;4971689;28;20520;-73
2023/06/18 09:43:04;;;;;;;4.77;3.70;;;;;;;;;;4975437;28;20457;-73
2023/06/18 09:45:45;;;;;;;5.07;3.97;;;;;;;;;;5024783;28;21180;-73
2023/06/18 09:48:31;;;;;;;4.63;4.10;;;;;;;;;;5033638;28;20959;-72
2023/06/18 09:57:13;;;;;;;4.27;3.87;;;;;;;;;;5034139;28;20477;-74
2023/06/18 10:00:27;;;;;;;4.90;3.50;;;;;;;;;;5031185;28;20584;-74
2023/06/18 10:03:10;;;;;;;6.13;3.80;;;;;;;;;;5024756;28;20576;-74
2023/06/18 10:09:34;;;;;;;4.10;3.30;;;;;;;;;;4994806;27;2694690;-74
2023/06/18 10:15:23;;;;;;;4.57;3.50;;;;;;;;;;5068013;28;20813;-74
2023/06/18 10:18:04;;;;;;;4.70;3.47;;;;;;;;;;5070806;28;20448;-74
2023/06/18 10:20:56;;;;;;;5.43;3.90;;;;;;;;;;5059784;28;20466;-74
2023/06/18 10:31:49;;;;;;;7.50;3.40;;;;;;;;;;4418186;26;20541;-82
2023/06/18 10:34:19;;;;;;;4.87;3.77;;;;;;;;;;5095279;28;20455;-81
2023/06/18 10:36:47;;;;;;;3.87;2.93;;;;;;;;;;5095799;28;20507;-80
2023/06/18 10:39:16;;;;;;;4.37;3.57;;;;;;;;;;5097449;28;20491;-80
2023/06/18 10:41:47;;;;;;;11.43;4.30;;;;;;;;;;5096511;28;20457;-80
2023/06/18 10:44:15;;;;;;;4.43;3.37;;;;;;;;;;5103216;28;20443;-81
2023/06/18 10:46:42;;;;;;;4.80;3.87;;;;;;;;;;5098899;28;20520;-83
2023/06/18 10:49:15;;;;;;;6.73;3.87;;;;;;;;;;5096423;28;20481;-81
2023/06/18 10:51:45;;;;;;;4.83;3.93;;;;;;;;;;5097449;28;20460;-80
2023/06/18 10:54:26;;;;;;;4.37;3.70;;;;;;;;;;5097179;28;20456;-80
2023/06/18 10:56:55;;;;;;;4.10;3.47;;;;;;;;;;5098342;28;20479;-80
2023/06/18 10:59:36;;;;;;;5.70;4.03;;;;;;;;;;5097646;28;20771;-81
2023/06/18 11:02:04;;;;;;;4.53;4.13;;;;;;;;;;5094955;28;20447;-82
2023/06/18 11:04:33;;;;;;;4.73;3.77;;;;;;;;;;5095764;28;20440;-81
2023/06/18 11:07:15;;;;;;;4.47;3.43;;;;;;;;;;5093708;28;20945;-81
2023/06/18 11:12:47;;;;;;;8.70;7.00;;;;;;;;;;5094998;28;20407;-81
2023/06/18 11:15:34;;;;;;;6.80;4.70;;;;;;;;;;5096346;22;20937;-74
2023/06/18 11:18:21;;;;;;;5.97;4.00;;;;;;;;;;5089130;28;20440;-77
2023/06/18 11:21:17;;;;;;;5.27;4.30;;;;;;;;;;5074252;28;20717;-77
2023/06/18 11:24:11;;;;;;;4.67;4.00;;;;;;;;;;5074471;28;20440;-76
2023/06/18 11:29:49;;;;;;;4.90;3.93;;;;;;;;;;5008008;23;20508;-81
2023/06/18 11:32:16;;;;;;;4.70;4.20;;;;;;;;;;4984787;28;20469;-80
2023/06/18 11:34:45;;;;;;;6.90;4.50;;;;;;;;;;4986350;28;20480;-83
2023/06/18 11:37:12;;;;;;;4.87;4.17;;;;;;;;;;4986109;28;20453;-81
2023/06/18 11:39:41;;;;;;;5.27;4.17;;;;;;;;;;4984565;28;20500;-81
2023/06/18 11:42:15;;;;;;;4.43;3.20;;;;;;;;;;4982394;28;20472;-83
2023/06/18 11:44:50;;;;;;;4.53;3.90;;;;;;;;;;4981785;28;20472;-79
2023/06/18 11:47:18;;;;;;;4.73;3.73;;;;;;;;;;4986145;28;20464;-81
2023/06/18 11:49:46;;;;;;;5.97;3.43;;;;;;;;;;4983546;28;20728;-80
2023/06/18 11:52:13;;;;;;;4.17;3.60;;;;;;;;;;4983631;28;20524;-81
2023/06/18 11:54:49;;;;;;;4.80;3.47;;;;;;;;;;4982405;28;20460;-81
2023/06/18 11:57:17;;;;;;;5.53;4.27;;;;;;;;;;4982079;28;20526;-83
2023/06/18 11:59:45;;;;;;;5.93;4.23;;;;;;;;;;4983870;28;20648;-82
2023/06/18 12:02:15;;;;;;;7.70;4.43;;;;;;;;;;4983779;28;20465;-81
2023/06/18 12:04:43;;;;;;;5.60;4.53;;;;;;;;;;4985111;28;20836;-81
2023/06/18 12:07:13;;;;;;;6.77;4.67;;;;;;;;;;4980666;28;20465;-81
2023/06/18 12:13:02;;;;;;;5.63;4.90;;;;;;;;;;4981045;28;20474;-82
2023/06/18 12:15:32;;;;;;;5.73;4.07;;;;;;;;;;4982988;28;20516;-79
2023/06/18 12:18:03;;;;;;;4.80;4.07;;;;;;;;;;4982399;28;20552;-79
2023/06/18 12:20:32;;;;;;;3.47;3.17;;;;;;;;;;4982493;28;20805;-82
2023/06/18 12:23:01;;;;;;;4.83;3.80;;;;;;;;;;4980114;28;20497;-83
2023/06/18 12:25:41;;;;;;;7.50;4.20;;;;;;;;;;4992151;23;20511;-73
2023/06/18 12:30:44;;;;;;;4.23;3.83;;;;;;;;;;5049329;23;20509;-81
2023/06/18 12:33:14;;;;;;;4.60;3.60;;;;;;;;;;4984595;28;20463;-81
2023/06/18 12:35:48;;;;;;;5.20;3.50;;;;;;;;;;4981055;28;20467;-80
2023/06/18 12:38:15;;;;;;;4.87;3.97;;;;;;;;;;4981960;28;20457;-81
2023/06/18 12:40:53;;;;;;;4.07;3.67;;;;;;;;;;4980895;28;20465;-83
2023/06/18 12:43:26;;;;;;;4.87;3.67;;;;;;;;;;4981326;28;20487;-83
2023/06/18 12:45:59;;;;;;;6.60;4.40;;;;;;;;;;4982665;28;20523;-83
2023/06/18 12:48:29;;;;;;;5.60;3.93;;;;;;;;;;4983606;28;20489;-83
2023/06/18 12:51:02;;;;;;;6.53;4.50;;;;;;;;;;4982595;28;20881;-82
2023/06/18 12:53:29;;;;;;;5.50;4.60;;;;;;;;;;4980126;28;20481;-81
2023/06/18 12:55:58;;;;;;;5.40;4.23;;;;;;;;;;4979191;28;20466;-81
2023/06/18 12:58:27;;;;;;;4.97;4.20;;;;;;;;;;4979081;28;20453;-81
2023/06/18 13:00:54;;;;;;;4.93;4.23;;;;;;;;;;4982174;28;20469;-79
2023/06/18 13:03:26;;;;;;;6.47;4.43;;;;;;;;;;4983130;28;20469;-80
2023/06/18 13:05:54;;;;;;;5.73;4.60;;;;;;;;;;4982460;28;20505;-80
2023/06/18 13:13:52;;;;;;;9.97;5.03;;;;;;;;;;5010747;23;20557;-74
2023/06/18 13:16:21;;;;;;;5.87;4.13;;;;;;;;;;4976338;28;20586;-73
2023/06/18 13:18:52;;;;;;;7.80;4.40;;;;;;;;;;4974223;28;21068;-73
2023/06/18 13:21:24;;;;;;;5.80;4.33;;;;;;;;;;4974687;28;20458;-72
2023/06/18 13:24:02;;;;;;;5.53;3.70;;;;;;;;;;4974046;28;20838;-73
2023/06/18 14:51:31;;;;;;;4.83;4.10;;;;;;;;;;4993545;28;20464;-75
2023/06/18 14:54:11;;;;;;;4.80;4.27;;;;;;;;;;4987390;28;20991;-74
2023/06/18 14:56:40;;;;;;;7.57;4.47;;;;;;;;;;4995893;28;20547;-74
2023/06/18 14:59:10;;;;;;;6.70;4.00;;;;;;;;;;4993891;28;20444;-73
2023/06/18 15:01:39;;;;;;;4.80;4.30;;;;;;;;;;4994451;28;20891;-75
2023/06/18 15:04:10;;;;;;;4.77;3.70;;;;;;;;;;4995259;28;20444;-76
2023/06/18 15:06:40;;;;;;;4.63;3.40;;;;;;;;;;4995106;28;20452;-73
2023/06/18 15:09:21;;;;;;;5.17;4.13;;;;;;;;;;4979899;28;20556;-74
2023/06/18 15:11:49;;;;;;;3.57;2.97;;;;;;;;;;4976622;28;20562;-73
2023/06/18 15:14:17;;;;;;;4.47;3.70;;;;;;;;;;4977109;28;20456;-73
2023/06/18 15:16:48;;;;;;;5.43;4.13;;;;;;;;;;4977891;28;20564;-73
2023/06/18 15:19:20;;;;;;;4.53;4.00;;;;;;;;;;4984169;28;20459;-73
2023/06/18 15:21:49;;;;;;;3.87;3.47;;;;;;;;;;4978645;28;21037;-74
2023/06/18 15:24:17;;;;;;;5.10;4.23;;;;;;;;;;4985544;28;20492;-72
2023/06/18 15:50:14;;;;;;;3.93;3.20;;;;;;;;;;5163350;23;20547;-75
2023/06/18 15:58:18;;;;;;;4.83;3.43;;;;;;;;;;5356716;22;20319;-77
2023/06/18 16:00:51;;;;;;;5.70;3.77;;;;;;;;;;4975018;28;21076;-74
2023/06/18 16:03:20;;;;;;;5.00;3.93;;;;;;;;;;4974373;28;20576;-75
2023/06/18 16:05:57;;;;;;;6.80;4.37;;;;;;;;;;4976559;28;20750;-74
2023/06/18 16:08:28;;;;;;;5.30;4.57;;;;;;;;;;4975462;28;20480;-75
2023/06/18 16:10:57;;;;;;;5.50;3.50;;;;;;;;;;4975463;28;20834;-75
2023/06/18 16:13:26;;;;;;;4.10;3.43;;;;;;;;;;4977130;28;20470;-75
2023/06/18 16:15:57;;;;;;;5.80;3.80;;;;;;;;;;4976342;28;20461;-74
2023/06/18 16:18:25;;;;;;;4.83;4.00;;;;;;;;;;4975528;28;20458;-75
2023/06/18 16:21:07;;;;;;;4.50;3.70;;;;;;;;;;4982808;28;20457;-75
2023/06/18 16:24:00;;;;;;;;;;;;;;;;;;;;;
2023/06/18 18:32:14;;;;;;;5.73;4.90;;;;;;;;;;4997275;28;20784;-81
2023/06/18 18:34:41;;;;;;;8.00;6.40;;;;;;;;;;5003296;28;20444;-82
2023/06/18 18:37:09;;;;;;;7.20;5.73;;;;;;;;;;5000178;28;20482;-81
2023/06/18 18:39:36;;;;;;;6.10;4.37;;;;;;;;;;5000600;28;20691;-80
2023/06/18 18:42:03;;;;;;;6.63;5.90;;;;;;;;;;4994883;28;20521;-80
2023/06/18 18:44:31;;;;;;;10.20;6.50;;;;;;;;;;4994545;28;20445;-80
2023/06/18 18:46:59;;;;;;;7.50;5.63;;;;;;;;;;4996892;28;20554;-82
2023/06/18 18:49:29;;;;;;;8.47;5.60;;;;;;;;;;4997580;28;20491;-81
2023/06/18 18:52:08;;;;;;;7.20;5.33;;;;;;;;;;5002000;28;20471;-83
2023/06/18 18:54:35;;;;;;;5.97;5.03;;;;;;;;;;5001488;28;20466;-81
2023/06/18 18:57:03;;;;;;;7.10;5.53;;;;;;;;;;5000182;28;20441;-80
2023/06/18 18:59:30;;;;;;;6.83;5.30;;;;;;;;;;5001148;28;20922;-81
2023/06/18 19:01:59;;;;;;;9.13;5.40;;;;;;;;;;5001630;28;20856;-81
2023/06/18 19:04:28;;;;;;;8.23;6.37;;;;;;;;;;5003147;28;20467;-82
2023/06/18 19:06:56;;;;;;;8.33;6.27;;;;;;;;;;5002412;28;20460;-82
2023/06/18 19:14:53;;;;;;;7.90;5.83;;;;;;;;;;5004956;28;20535;-83
2023/06/18 19:17:23;;;;;;;8.40;5.50;;;;;;;;;;5005879;28;20193;-81
2023/06/18 19:19:57;;;;;;;9.37;5.77;;;;;;;;;;5004196;28;20452;-81
2023/06/18 19:22:31;;;;;;;8.67;6.10;;;;;;;;;;5003934;28;20677;-80
2023/06/18 19:30:08;;;;;;;6.83;5.90;;;;;;;;;;1457842;26;20468;-82
2023/06/18 19:32:36;;;;;;;7.07;5.67;;;;;;;;;;5005487;28;20525;-82
2023/06/18 19:35:04;;;;;;;7.43;5.57;;;;;;;;;;5005706;28;20463;-80
2023/06/18 19:37:32;;;;;;;6.93;5.40;;;;;;;;;;5004966;28;20471;-84
2023/06/18 19:39:59;;;;;;;7.87;4.97;;;;;;;;;;5005167;28;20483;-80
2023/06/18 19:42:27;;;;;;;11.00;6.03;;;;;;;;;;5003553;28;20518;-83
2023/06/18 19:44:54;;;;;;;6.03;5.27;;;;;;;;;;5003997;28;20720;-82
2023/06/18 19:47:22;;;;;;;7.40;5.33;;;;;;;;;;5002347;28;20488;-83
2023/06/18 19:49:49;;;;;;;6.97;5.20;;;;;;;;;;4999278;28;20544;-82
2023/06/18 19:52:18;;;;;;;10.23;6.70;;;;;;;;;;4998447;28;20480;-80
2023/06/18 19:54:45;;;;;;;8.37;5.67;;;;;;;;;;5000239;28;20456;-81
2023/06/18 19:57:12;;;;;;;7.17;5.80;;;;;;;;;;4999400;28;20872;-81
2023/06/18 19:59:40;;;;;;;6.50;5.50;;;;;;;;;;5003648;28;20456;-82
2023/06/18 20:02:08;;;;;;;6.23;5.57;;;;;;;;;;5003397;28;20449;-79
2023/06/18 20:04:35;;;;;;;7.57;5.47;;;;;;;;;;5008827;28;20453;-81
2023/06/18 20:07:03;;;;;;;7.63;5.73;;;;;;;;;;5010660;28;20495;-81
2023/06/18 20:12:37;;;;;;;7.40;5.80;;;;;;;;;;5010517;28;20559;-82
2023/06/18 20:15:11;;;;;;;9.00;5.80;;;;;;;;;;5024126;28;20467;-80
2023/06/18 20:17:40;;;;;;;7.00;6.00;;;;;;;;;;5023780;28;20459;-82
2023/06/18 20:20:10;;;;;;;5.80;5.20;;;;;;;;;;5023583;28;20463;-81
2023/06/18 20:22:37;;;;;;;6.00;5.40;;;;;;;;;;5027178;28;20464;-81
2023/06/18 20:25:06;;;;;;;8.80;5.90;;;;;;;;;;5029182;22;20499;-71
2023/06/18 20:30:15;;;;;;;6.83;5.80;;;;;;;;;;5591686;23;20529;-71
2023/06/18 20:32:43;;;;;;;6.20;5.10;;;;;;;;;;4947298;29;20553;-72
2023/06/18 20:35:18;;;;;;;7.13;5.67;;;;;;;;;;4951229;29;20446;-73
2023/06/18 20:40:44;;;;;;;6.27;5.50;;;;;;;;;;4908677;29;21054;-73
2023/06/18 20:43:24;;;;;;;6.67;5.80;;;;;;;;;;4937554;29;20490;-72
2023/06/18 20:46:08;;;;;;;7.27;5.40;;;;;;;;;;4935026;29;20486;-72
2023/06/18 20:48:41;;;;;;;7.03;6.33;;;;;;;;;;4933757;29;20457;-73
2023/06/18 20:54:18;;;;;;;6.60;5.87;;;;;;;;;;4967368;28;20694;-72
2023/06/18 20:56:52;;;;;;;6.80;6.10;;;;;;;;;;5015115;28;20534;-73
2023/06/18 20:59:24;;;;;;;6.80;4.80;;;;;;;;;;5022601;28;20653;-73
2023/06/18 21:01:52;;;;;;;7.50;6.10;;;;;;;;;;5017203;28;20460;-73
2023/06/18 21:04:33;;;;;;;6.43;5.80;;;;;;;;;;5016097;28;20455;-73
2023/06/18 21:07:01;;;;;;;6.90;5.70;;;;;;;;;;5017279;28;20504;-73
2023/06/18 21:09:30;;;;;;;6.43;5.83;;;;;;;;;;5015575;28;20589;-72
2023/06/18 21:12:04;;;;;;;8.90;6.30;;;;;;;;;;5016463;28;20950;-73
2023/06/18 21:14:32;;;;;;;8.20;6.40;;;;;;;;;;5015564;28;20451;-73
2023/06/18 21:17:02;;;;;;;6.17;5.57;;;;;;;;;;5014735;28;20468;-73
2023/06/18 21:19:31;;;;;;;7.30;5.87;;;;;;;;;;4998701;28;20464;-74
2023/06/18 21:21:59;;;;;;;9.33;5.67;;;;;;;;;;5003638;28;20456;-73
2023/06/18 21:24:27;;;;;;;6.47;5.67;;;;;;;;;;5016380;28;20456;-73
2023/06/18 21:32:06;;;;;;;9.13;6.20;;;;;;;;;;5707119;23;20491;-81
2023/06/18 21:34:35;;;;;;;6.40;5.40;;;;;;;;;;5001252;28;20524;-80
2023/06/18 21:37:02;;;;;;;7.00;5.50;;;;;;;;;;5000462;28;20452;-83
2023/06/18 21:39:30;;;;;;;6.77;5.20;;;;;;;;;;5003548;28;20875;-82
2023/06/18 21:41:57;;;;;;;6.33;5.70;;;;;;;;;;5006003;28;20464;-81
2023/06/18 21:44:25;;;;;;;6.53;5.67;;;;;;;;;;5002259;28;20453;-83
2023/06/18 21:46:55;;;;;;;6.73;5.13;;;;;;;;;;5000745;28;20452;-83
2023/06/18 21:49:29;;;;;;;11.17;6.00;;;;;;;;;;5006385;28;20460;-81
2023/06/18 21:51:58;;;;;;;7.40;6.70;;;;;;;;;;5009118;28;20542;-81
2023/06/18 21:54:25;;;;;;;6.83;5.60;;;;;;;;;;5007115;28;20487;-81
2023/06/18 21:56:53;;;;;;;7.80;6.00;;;;;;;;;;5002367;28;20484;-80
2023/06/18 21:59:21;;;;;;;7.63;5.60;;;;;;;;;;4986715;28;20448;-79
2023/06/18 22:01:49;;;;;;;6.83;5.90;;;;;;;;;;5006664;28;20479;-79
2023/06/18 22:04:17;;;;;;;7.33;6.40;;;;;;;;;;5004903;28;20453;-81
2023/06/18 22:06:45;;;;;;;6.93;6.23;;;;;;;;;;5004052;28;20488;-79
2023/06/18 22:12:22;;;;;;;7.40;5.60;;;;;;;;;;5001860;28;20555;-79
2023/06/18 22:14:50;;;;;;;6.90;6.20;;;;;;;;;;5007978;28;20496;-82
2023/06/18 22:17:18;;;;;;;6.20;5.60;;;;;;;;;;5005033;28;20431;-81
2023/06/18 22:19:47;;;;;;;6.57;5.97;;;;;;;;;;5006433;28;20448;-83
2023/06/18 22:22:15;;;;;;;7.83;6.80;;;;;;;;;;5006100;28;20536;-82
